首页
METAR-TAF:

METAR-TAF

机场 :

彭萨科拉, 佛罗里达州, 美国

纬度: 30-21-22N, 经度: 087-19-24W, 海拔: 9米

当前天气观测

该预报发布于30分钟前的03:16 UTC
风速3节,风向北转东北
温度 17°C
湿度 88%
气压 1017 hPa
能見度: 16.1公里
多云层高于1200英尺
阴天层高于2500英尺

METAR: KNPA 230316Z AUTO 03003KT 10SM BKN012 OVC025 17/15 A3002 RMK AO2 T01670150 PNO $

时间: 21:46 (03:46 UTC)

预报

预报有效从22日的 23点(UTC)到 23日的 23点(UTC)
风速5节,风向多变
能见度10公里或以上
散云层高于1500英尺
多云层高于2600英尺
多云层高于9500英尺
附近有阵雨
短暂存在
从 22日的 23点(UTC)到 23日的 05点(UTC)
能見度: 8000
散云层高于3000英尺
多云层高于9000英尺
小阵雨, 轻雾
从 23日的 0500点(UTC)
风速5节,风向北转东北
能見度: 6000
多云层高于400英尺
阴天层高于1200英尺
轻雾
短暂存在
从 23日的 05点(UTC)到 23日的 10点(UTC)
能見度: 0800
阴天层高于300英尺
从 23日的 1800点(UTC)
风速9节,风向东转东北
能見度: 2315
散云层高于700英尺
多云层高于1500英尺
阴天层高于2500英尺

TAF: KNPA 2223/2323 VRB05KT 9999 VCSH SCT015 BKN026 BKN095 QNH2992INS TEMPO 2223/2305 8000 -SHRA BR SCT030 BKN090 FM230500 03005KT 6000 BR BKN004 OVC012 QNH2991INS TEMPO 2305/2310 0800 FG OVC003 FM231800 07009KT 9999 SCT007 BKN015 OVC025 QNH2990INS AUTOMATED SENSOR METWATCH 2303 TIL 2315 T13/2312Z T16/2315Z FN20034

超过4000个机场的气象观测和天气预报(METAR&TAF报告)。

可查询的气象台以黄色和红色小点在地图上表示。

将鼠标移到小点上方,可查看气象台名称。

然后点击查看天气观测和预报。

如需切换地图:点击带黑十字的绿色按钮放大地图;点击带横线的绿色按钮缩小地图;或者点击绿色箭头查看邻近地区的地图。


METAR-TAF: